<?xml version="1.0" encoding="UTF-8" standalone="no" ?>
<gpx xmlns="http://www.topografix.com/GPX/1/1" xmlns:xsi="http://www.w3.org/2001/XMLSchema-instance" xsi:schemaLocation="http://www.topografix.com/GPX/1/1 http://www.topografix.com/GPX/1/1/gpx.xsd" version="1.1" creator="VisuGPX - https://www.visugpx.com">
  <metadata>
    <name>luzech 6 descentes</name>
    <desc><![CDATA[parcours typé enduro avec de belles descentes]]></desc>
  </metadata>
  <trk>
    <name><![CDATA[2014-04-01-08-18-57]]></name>
    <desc><![CDATA[Total: 39.9km]]></desc>
    <trkseg>
      <trkpt lat="44.47501" lon="1.28054">
        <ele>111.155</ele>
        <time>2014-04-01T08:18:58Z</time>
      </trkpt>
      <trkpt lat="44.47497" lon="1.28022">
        <ele>112.265</ele>
        <time>2014-04-01T08:19:06Z</time>
      </trkpt>
      <trkpt lat="44.47492" lon="1.27983">
        <ele>113.344</ele>
        <time>2014-04-01T08:19:16Z</time>
      </trkpt>
      <trkpt lat="44.47488" lon="1.27952">
        <ele>114.674</ele>
        <time>2014-04-01T08:19:24Z</time>
      </trkpt>
      <trkpt lat="44.47487" lon="1.27916">
        <ele>116.584</ele>
        <time>2014-04-01T08:19:34Z</time>
      </trkpt>
      <trkpt lat="44.47488" lon="1.27908">
        <ele>116.554</ele>
        <time>2014-04-01T08:19:37Z</time>
      </trkpt>
      <trkpt lat="44.47479" lon="1.27894">
        <ele>116.223</ele>
        <time>2014-04-01T08:19:43Z</time>
      </trkpt>
      <trkpt lat="44.47456" lon="1.27874">
        <ele>116.353</ele>
        <time>2014-04-01T08:19:51Z</time>
      </trkpt>
      <trkpt lat="44.47438" lon="1.27849">
        <ele>117.704</ele>
        <time>2014-04-01T08:19:59Z</time>
      </trkpt>
      <trkpt lat="44.47416" lon="1.27802">
        <ele>117.973</ele>
        <time>2014-04-01T08:20:12Z</time>
      </trkpt>
      <trkpt lat="44.47396" lon="1.27765">
        <ele>118.163</ele>
        <time>2014-04-01T08:20:23Z</time>
      </trkpt>
      <trkpt lat="44.47377" lon="1.27738">
        <ele>117.943</ele>
        <time>2014-04-01T08:20:32Z</time>
      </trkpt>
      <trkpt lat="44.47356" lon="1.27702">
        <ele>118.843</ele>
        <time>2014-04-01T08:20:43Z</time>
      </trkpt>
      <trkpt lat="44.47341" lon="1.27673">
        <ele>119.313</ele>
        <time>2014-04-01T08:20:52Z</time>
      </trkpt>
      <trkpt lat="44.47324" lon="1.27643">
        <ele>120.364</ele>
        <time>2014-04-01T08:21:02Z</time>
      </trkpt>
      <trkpt lat="44.47307" lon="1.27621">
        <ele>123.624</ele>
        <time>2014-04-01T08:21:12Z</time>
      </trkpt>
      <trkpt lat="44.473" lon="1.27608">
        <ele>124.403</ele>
        <time>2014-04-01T08:21:18Z</time>
      </trkpt>
      <trkpt lat="44.47295" lon="1.27595">
        <ele>125.804</ele>
        <time>2014-04-01T08:21:24Z</time>
      </trkpt>
      <trkpt lat="44.4729" lon="1.27575">
        <ele>128.293</ele>
        <time>2014-04-01T08:21:32Z</time>
      </trkpt>
      <trkpt lat="44.47286" lon="1.27562">
        <ele>128.423</ele>
        <time>2014-04-01T08:21:37Z</time>
      </trkpt>
      <trkpt lat="44.4728" lon="1.27548">
        <ele>129.493</ele>
        <time>2014-04-01T08:21:43Z</time>
      </trkpt>
      <trkpt lat="44.47273" lon="1.27536">
        <ele>128.892</ele>
        <time>2014-04-01T08:21:49Z</time>
      </trkpt>
      <trkpt lat="44.47264" lon="1.27526">
        <ele>128.202</ele>
        <time>2014-04-01T08:21:55Z</time>
      </trkpt>
      <trkpt lat="44.47253" lon="1.27513">
        <ele>126.962</ele>
        <time>2014-04-01T08:22:02Z</time>
      </trkpt>
      <trkpt lat="44.47245" lon="1.27503">
        <ele>126.452</ele>
        <time>2014-04-01T08:22:07Z</time>
      </trkpt>
      <trkpt lat="44.47235" lon="1.27492">
        <ele>128.253</ele>
        <time>2014-04-01T08:22:13Z</time>
      </trkpt>
      <trkpt lat="44.47225" lon="1.27479">
        <ele>130.413</ele>
        <time>2014-04-01T08:22:20Z</time>
      </trkpt>
      <trkpt lat="44.47214" lon="1.27469">
        <ele>129.312</ele>
        <time>2014-04-01T08:22:26Z</time>
      </trkpt>
      <trkpt lat="44.47203" lon="1.27454">
        <ele>129.572</ele>
        <time>2014-04-01T08:22:33Z</time>
      </trkpt>
      <trkpt lat="44.47193" lon="1.27439">
        <ele>129.882</ele>
        <time>2014-04-01T08:22:40Z</time>
      </trkpt>
      <trkpt lat="44.47182" lon="1.2743">
        <ele>130.282</ele>
        <time>2014-04-01T08:22:46Z</time>
      </trkpt>
      <trkpt lat="44.47169" lon="1.27421">
        <ele>132.803</ele>
        <time>2014-04-01T08:22:53Z</time>
      </trkpt>
      <trkpt lat="44.47152" lon="1.27411">
        <ele>132.132</ele>
        <time>2014-04-01T08:23:01Z</time>
      </trkpt>
      <trkpt lat="44.47136" lon="1.27391">
        <ele>132.502</ele>
        <time>2014-04-01T08:23:11Z</time>
      </trkpt>
      <trkpt lat="44.47123" lon="1.27374">
        <ele>134.642</ele>
        <time>2014-04-01T08:23:19Z</time>
      </trkpt>
      <trkpt lat="44.47107" lon="1.27355">
        <ele>134.811</ele>
        <time>2014-04-01T08:23:28Z</time>
      </trkpt>
      <trkpt lat="44.47097" lon="1.27342">
        <ele>135.041</ele>
        <time>2014-04-01T08:23:34Z</time>
      </trkpt>
      <trkpt lat="44.47082" lon="1.27327">
        <ele>137.222</ele>
        <time>2014-04-01T08:23:41Z</time>
      </trkpt>
      <trkpt lat="44.4706" lon="1.27312">
        <ele>138.111</ele>
        <time>2014-04-01T08:23:49Z</time>
      </trkpt>
      <trkpt lat="44.47038" lon="1.27299">
        <ele>138.221</ele>
        <time>2014-04-01T08:23:57Z</time>
      </trkpt>
      <trkpt lat="44.47014" lon="1.27286">
        <ele>139.391</ele>
        <time>2014-04-01T08:24:05Z</time>
      </trkpt>
      <trkpt lat="44.46987" lon="1.27268">
        <ele>139.66</ele>
        <time>2014-04-01T08:24:15Z</time>
      </trkpt>
      <trkpt lat="44.46967" lon="1.27258">
        <ele>140.141</ele>
        <time>2014-04-01T08:24:22Z</time>
      </trkpt>
      <trkpt lat="44.46945" lon="1.27247">
        <ele>143.203</ele>
        <time>2014-04-01T08:24:31Z</time>
      </trkpt>
      <trkpt lat="44.4692" lon="1.27239">
        <ele>142.82</ele>
        <time>2014-04-01T08:24:40Z</time>
      </trkpt>
      <trkpt lat="44.469" lon="1.27232">
        <ele>142.32</ele>
        <time>2014-04-01T08:24:47Z</time>
      </trkpt>
      <trkpt lat="44.46878" lon="1.27222">
        <ele>144.601</ele>
        <time>2014-04-01T08:24:55Z</time>
      </trkpt>
      <trkpt lat="44.46849" lon="1.27211">
        <ele>145.941</ele>
        <time>2014-04-01T08:25:06Z</time>
      </trkpt>
      <trkpt lat="44.46831" lon="1.27207">
        <ele>145.141</ele>
        <time>2014-04-01T08:25:14Z</time>
      </trkpt>
      <trkpt lat="44.46811" lon="1.2721">
        <ele>144.5</ele>
        <time>2014-04-01T08:25:22Z</time>
      </trkpt>
      <trkpt lat="44.46793" lon="1.27212">
        <ele>143.879</ele>
        <time>2014-04-01T08:25:29Z</time>
      </trkpt>
      <trkpt lat="44.46767" lon="1.27209">
        <ele>145.22</ele>
        <time>2014-04-01T08:25:39Z</time>
      </trkpt>
      <trkpt lat="44.46742" lon="1.27207">
        <ele>146.64</ele>
        <time>2014-04-01T08:25:49Z</time>
      </trkpt>
      <trkpt lat="44.46726" lon="1.27204">
        <ele>149.141</ele>
        <time>2014-04-01T08:25:56Z</time>
      </trkpt>
      <trkpt lat="44.46712" lon="1.27201">
        <ele>151.831</ele>
        <time>2014-04-01T08:26:02Z</time>
      </trkpt>
      <trkpt lat="44.46694" lon="1.27197">
        <ele>152.62</ele>
        <time>2014-04-01T08:26:10Z</time>
      </trkpt>
      <trkpt lat="44.46682" lon="1.27192">
        <ele>153.509</ele>
        <time>2014-04-01T08:26:16Z</time>
      </trkpt>
      <trkpt lat="44.46668" lon="1.27186">
        <ele>154.369</ele>
        <time>2014-04-01T08:26:23Z</time>
      </trkpt>
      <trkpt lat="44.46653" lon="1.2718">
        <ele>153.648</ele>
        <time>2014-04-01T08:26:30Z</time>
      </trkpt>
      <trkpt lat="44.46638" lon="1.27175">
        <ele>154.469</ele>
        <time>2014-04-01T08:26:37Z</time>
      </trkpt>
      <trkpt lat="44.46619" lon="1.27167">
        <ele>151.366</ele>
        <time>2014-04-01T08:26:46Z</time>
      </trkpt>
      <trkpt lat="44.46605" lon="1.27161">
        <ele>151.178</ele>
        <time>2014-04-01T08:26:53Z</time>
      </trkpt>
      <trkpt lat="44.46594" lon="1.27156">
        <ele>152.099</ele>
        <time>2014-04-01T08:26:59Z</time>
      </trkpt>
      <trkpt lat="44.46582" lon="1.27153">
        <ele>154.27</ele>
        <time>2014-04-01T08:27:05Z</time>
      </trkpt>
      <trkpt lat="44.4656" lon="1.27153">
        <ele>153.979</ele>
        <time>2014-04-01T08:27:15Z</time>
      </trkpt>
      <trkpt lat="44.46541" lon="1.27157">
        <ele>153.698</ele>
        <time>2014-04-01T08:27:24Z</time>
      </trkpt>
      <trkpt lat="44.46521" lon="1.27163">
        <ele>156.338</ele>
        <time>2014-04-01T08:27:34Z</time>
      </trkpt>
      <trkpt lat="44.46506" lon="1.27168">
        <ele>157.439</ele>
        <time>2014-04-01T08:27:41Z</time>
      </trkpt>
      <trkpt lat="44.46491" lon="1.27175">
        <ele>158.169</ele>
        <time>2014-04-01T08:27:49Z</time>
      </trkpt>
      <trkpt lat="44.46482" lon="1.27181">
        <ele>158.739</ele>
        <time>2014-04-01T08:27:54Z</time>
      </trkpt>
      <trkpt lat="44.46472" lon="1.27189">
        <ele>160.419</ele>
        <time>2014-04-01T08:28:00Z</time>
      </trkpt>
      <trkpt lat="44.46463" lon="1.27196">
        <ele>161.208</ele>
        <time>2014-04-01T08:28:05Z</time>
      </trkpt>
      <trkpt lat="44.46444" lon="1.27208">
        <ele>162.939</ele>
        <time>2014-04-01T08:28:15Z</time>
      </trkpt>
      <trkpt lat="44.4643" lon="1.27215">
        <ele>163.488</ele>
        <time>2014-04-01T08:28:22Z</time>
      </trkpt>
      <trkpt lat="44.46415" lon="1.27224">
        <ele>164.118</ele>
        <time>2014-04-01T08:28:30Z</time>
      </trkpt>
      <trkpt lat="44.46397" lon="1.27235">
        <ele>165.538</ele>
        <time>2014-04-01T08:28:40Z</time>
      </trkpt>
      <trkpt lat="44.46383" lon="1.27241">
        <ele>166.659</ele>
        <time>2014-04-01T08:28:47Z</time>
      </trkpt>
      <trkpt lat="44.46367" lon="1.27241">
        <ele>167.338</ele>
        <time>2014-04-01T08:28:55Z</time>
      </trkpt>
      <trkpt lat="44.4635" lon="1.27236">
        <ele>167.908</ele>
        <time>2014-04-01T08:29:04Z</time>
      </trkpt>
      <trkpt lat="44.46337" lon="1.27231">
        <ele>172.119</ele>
        <time>2014-04-01T08:29:12Z</time>
      </trkpt>
      <trkpt lat="44.46329" lon="1.27228">
        <ele>173.588</ele>
        <time>2014-04-01T08:29:17Z</time>
      </trkpt>
      <trkpt lat="44.46314" lon="1.27225">
        <ele>175.098</ele>
        <time>2014-04-01T08:29:26Z</time>
      </trkpt>
      <trkpt lat="44.46303" lon="1.27223">
        <ele>176.478</ele>
        <time>2014-04-01T08:29:33Z</time>
      </trkpt>
      <trkpt lat="44.46291" lon="1.27224">
        <ele>177.778</ele>
        <time>2014-04-01T08:29:40Z</time>
      </trkpt>
      <trkpt lat="44.46277" lon="1.27224">
        <ele>180.498</ele>
        <time>2014-04-01T08:29:49Z</time>
      </trkpt>
      <trkpt lat="44.46263" lon="1.2722">
        <ele>181.998</ele>
        <time>2014-04-01T08:29:57Z</time>
      </trkpt>
      <trkpt lat="44.4625" lon="1.27214">
        <ele>183.178</ele>
        <time>2014-04-01T08:30:05Z</time>
      </trkpt>
      <trkpt lat="44.46234" lon="1.27204">
        <ele>187.748</ele>
        <time>2014-04-01T08:30:15Z</time>
      </trkpt>
      <trkpt lat="44.46221" lon="1.27194">
        <ele>190.867</ele>
        <time>2014-04-01T08:30:24Z</time>
      </trkpt>
      <trkpt lat="44.46211" lon="1.27187">
        <ele>192.168</ele>
        <time>2014-04-01T08:30:31Z</time>
      </trkpt>
      <trkpt lat="44.46198" lon="1.2718">
        <ele>192.997</ele>
        <time>2014-04-01T08:30:39Z</time>
      </trkpt>
      <trkpt lat="44.46187" lon="1.27177">
        <ele>194.118</ele>
        <time>2014-04-01T08:30:46Z</time>
      </trkpt>
      <trkpt lat="44.46177" lon="1.27175">
        <ele>195.758</ele>
        <time>2014-04-01T08:30:53Z</time>
      </trkpt>
      <trkpt lat="44.46165" lon="1.27175">
        <ele>198.077</ele>
        <time>2014-04-01T08:31:02Z</time>
      </trkpt>
      <trkpt lat="44.46157" lon="1.27173">
        <ele>198.587</ele>
        <time>2014-04-01T08:31:08Z</time>
      </trkpt>
      <trkpt lat="44.46156" lon="1.27172">
        <ele>198.757</ele>
        <time>2014-04-01T08:31:09Z</time>
      </trkpt>
      <trkpt lat="44.46151" lon="1.27167">
        <ele>198.408</ele>
        <time>2014-04-01T08:31:16Z</time>
      </trkpt>
    </trkseg>
  </trk>
</gpx>